Δεν απαιτείται κάποια ιδιαίτερη επαγρύπνηση.    Δεν υπάρχουν προειδοποιήσεις επικίνδυνων καιρικών φαινομένων

Οι άλλοι ιστότοποί μου:

SYKIA HOMEWEATHERSTATIONsikeaweather.alinos.eu

SYKIA METEOTEMPLATEsykiameteo.alinos.eu

alinos.eualinos.eu



Αναφορές γειτονικών METAR

   
LGEL - Elefsis (hel-Afb, Greece
Απόσταση από τον σταθμό: Α 77 km
Ενημερώθηκε: 13-12-2018 18:20
Σχεδόν νεφελώδης  
Σχεδόν νεφελώδης  
   Ανεμος: Απνοια
Ανεμος: Απνοια
Θερμοκρασία: 8°C
Σημείο Δρόσου: 6°C
Υγρασία: 87%
Βαρόμετρο: 1017 hPa
Νεφώσεις: Σχεδόν νεφελώδης
Ορατότητα: More than 10 km
Στοιχεία νεφών: Διάσπαρτα νέφη 2000 ft,
Σχεδόν νεφελώδης 7000 ft
LGEL 131620Z 00000KT 9999 FEW020 BKN070 08/06 Q1017
LGRX - Araxos (civ/Afb), Greece
Απόσταση από τον σταθμό: Δ 110 km
Ενημερώθηκε: 13-12-2018 18:20
Σχεδόν νεφελώδης  
Σχεδόν νεφελώδης  
   Ανεμος: ΒΑ 22.2 km/h
Ανεμος: ΒΑ 22.2 km/h
Θερμοκρασία: 11°C
Σημείο Δρόσου: 8°C
Υγρασία: 82%
Βαρόμετρο: 1015 hPa
Νεφώσεις: Σχεδόν νεφελώδης
Ορατότητα: More than 10 km
Στοιχεία νεφών: Σχεδόν νεφελώδης 2500 ft,
Σχεδόν νεφελώδης 8000 ft
LGRX 131620Z 05012KT 9999 BKN025 BKN080 11/08 Q1015
LGAV - Athens/Elef-Ven, Greece
Απόσταση από τον σταθμό: Α 113 km
Ενημερώθηκε: 13-12-2018 18:20
Σχεδόν νεφελώδης  
Σχεδόν νεφελώδης  
   Ανεμος: Βόρια 5.6 km/h
Ανεμος: Βόρια 5.6 km/h
Θερμοκρασία: 10°C
Αίσθηση ψύχους: 9°C
Σημείο Δρόσου: 6°C
Υγρασία: 76%
Βαρόμετρο: 1017 hPa
Νεφώσεις: Σχεδόν νεφελώδης
Ορατότητα: More than 10 km
Στοιχεία νεφών: Σχεδόν νεφελώδης 2500 ft
LGAV 131620Z 35003KT 9999 BKN025 10/06 Q1017 NOSIG
LGAD - Andravida (civ/A, Greece
Απόσταση από τον σταθμό: Δ 124 km
Ενημερώθηκε: 13-12-2018 18:20
Σχεδόν νεφελώδης  
Σχεδόν νεφελώδης  
   Ανεμος: Απνοια
Ανεμος: Απνοια
Θερμοκρασία: 10°C
Σημείο Δρόσου: 7°C
Υγρασία: 82%
Βαρόμετρο: 1015 hPa
Νεφώσεις: Σχεδόν νεφελώδης
Ορατότητα: More than 10 km
Στοιχεία νεφών: Μερικώς νεφελώδης 2500 ft,
Σχεδόν νεφελώδης 8000 ft
LGAD 131620Z 00000KT 9999 SCT025 BKN080 10/07 Q1015
LGKL - Kalamata (hel-Af, Greece
Απόσταση από τον σταθμό: ΝΝΔ 124 km
Ενημερώθηκε: 13-12-2018 18:20
Βροχή, Ομίχλη, Σχεδόν νεφελώδης  
Βροχή, Ομίχλη, Σχεδόν νεφελώδης  
   Ανεμος: ΒΒΔ 13 km/h
Ανεμος: ΒΒΔ 13 km/h
Θερμοκρασία: 11°C
Σημείο Δρόσου: 10°C
Υγρασία: 94%
Βαρόμετρο: 1016 hPa
Νεφώσεις: Σχεδόν νεφελώδης
Ορατότητα: 5 km
Στοιχεία νεφών: Μερικώς νεφελώδης 2500 ft,
Μερικώς νεφελώδης 4000 ft,
Σχεδόν νεφελώδης 8000 ft
LGKL 131620Z 34007KT 5000 RA BR SCT025 SCT040 BKN080 11/10 Q1016
LGBL - Nea Anchialos, Greece
Απόσταση από τον σταθμό: Β 129 km
Ενημερώθηκε: 13-12-2018 18:20
Σκοτεινιασμένος  
Σκοτεινιασμένος  
   Ανεμος: Δυτικά 9.3 km/h
Ανεμος: Δυτικά 9.3 km/h
Θερμοκρασία: 4°C
Αίσθηση ψύχους: 2°C
Σημείο Δρόσου: 3°C
Υγρασία: 93%
Βαρόμετρο: 1019 hPa
Νεφώσεις: Σκοτεινιασμένος
Ορατότητα: More than 10 km
Στοιχεία νεφών: Διάσπαρτα νέφη 1200 ft,
Σχεδόν νεφελώδης 2500 ft,
Σκοτεινιασμένος 7000 ft
LGBL 131620Z 28005KT 9999 FEW012 BKN025 OVC070 04/03 Q1019

Αρχική γραφή από  Saratoga-weather.org Προσαρμογή στον ιστότοπο από  Weerstation Leuven

Βλέπε επίσης τις ενημερώσεις τού σταθμού μας στα παρακάτω δίκτυα:

European Weather Network

Weather Underground

AWEKAS

Citizen Weather Observer Program (CWOP)

HAMweather, WeatherForYou, PWS Weather

UK Metoffice

Equipment we use:

Μετεωρολογικός σταθμός
Davis Wireless Vantage Pro2

Davis Wireless Vantage Pro2